sensor_id;sensor_type;location;lat;lon;timestamp;P1;durP1;ratioP1;P2;durP2;ratioP2
21330;SDS011;10824;51.632;4.950;2023-07-31T00:01:49;10.18;;;2.33;;
21330;SDS011;10824;51.632;4.950;2023-07-31T00:04:16;17.55;;;2.92;;
21330;SDS011;10824;51.632;4.950;2023-07-31T00:06:43;22.35;;;4.10;;
21330;SDS011;10824;51.632;4.950;2023-07-31T00:09:10;7.50;;;2.28;;
21330;SDS011;10824;51.632;4.950;2023-07-31T00:11:37;5.95;;;2.08;;
21330;SDS011;10824;51.632;4.950;2023-07-31T00:14:04;6.80;;;2.33;;
21330;SDS011;10824;51.632;4.950;2023-07-31T00:16:31;11.23;;;3.50;;
21330;SDS011;10824;51.632;4.950;2023-07-31T00:18:59;7.20;;;2.30;;
21330;SDS011;10824;51.632;4.950;2023-07-31T00:21:26;7.20;;;2.08;;
21330;SDS011;10824;51.632;4.950;2023-07-31T00:23:53;8.27;;;3.00;;
21330;SDS011;10824;51.632;4.950;2023-07-31T00:26:20;10.07;;;2.85;;
21330;SDS011;10824;51.632;4.950;2023-07-31T00:28:47;5.78;;;2.90;;
21330;SDS011;10824;51.632;4.950;2023-07-31T00:31:14;4.93;;;3.15;;
21330;SDS011;10824;51.632;4.950;2023-07-31T00:33:41;4.32;;;2.13;;
21330;SDS011;10824;51.632;4.950;2023-07-31T00:36:08;5.88;;;2.55;;
21330;SDS011;10824;51.632;4.950;2023-07-31T00:38:35;4.35;;;2.15;;
21330;SDS011;10824;51.632;4.950;2023-07-31T00:41:02;13.30;;;2.75;;
21330;SDS011;10824;51.632;4.950;2023-07-31T00:43:29;14.40;;;4.25;;
21330;SDS011;10824;51.632;4.950;2023-07-31T00:45:56;7.78;;;2.15;;
21330;SDS011;10824;51.632;4.950;2023-07-31T00:48:24;9.82;;;3.55;;
21330;SDS011;10824;51.632;4.950;2023-07-31T00:50:51;8.25;;;2.60;;
21330;SDS011;10824;51.632;4.950;2023-07-31T00:53:18;6.97;;;2.13;;
21330;SDS011;10824;51.632;4.950;2023-07-31T00:55:46;5.88;;;2.28;;
21330;SDS011;10824;51.632;4.950;2023-07-31T00:58:13;6.47;;;2.25;;
21330;SDS011;10824;51.632;4.950;2023-07-31T01:00:40;7.65;;;2.78;;
21330;SDS011;10824;51.632;4.950;2023-07-31T01:03:07;6.10;;;2.70;;
21330;SDS011;10824;51.632;4.950;2023-07-31T01:08:34;11.40;;;2.55;;
21330;SDS011;10824;51.632;4.950;2023-07-31T01:14:23;6.05;;;1.85;;
21330;SDS011;10824;51.632;4.950;2023-07-31T01:16:52;6.65;;;2.13;;
21330;SDS011;10824;51.632;4.950;2023-07-31T01:19:22;4.90;;;1.80;;
21330;SDS011;10824;51.632;4.950;2023-07-31T01:27:59;5.45;;;2.47;;
21330;SDS011;10824;51.632;4.950;2023-07-31T01:30:32;6.35;;;2.30;;
21330;SDS011;10824;51.632;4.950;2023-07-31T01:33:02;7.63;;;2.25;;
21330;SDS011;10824;51.632;4.950;2023-07-31T01:35:34;6.25;;;1.98;;
21330;SDS011;10824;51.632;4.950;2023-07-31T01:38:01;12.88;;;3.05;;
21330;SDS011;10824;51.632;4.950;2023-07-31T01:40:28;13.20;;;4.00;;
21330;SDS011;10824;51.632;4.950;2023-07-31T01:42:55;4.70;;;2.35;;
21330;SDS011;10824;51.632;4.950;2023-07-31T01:45:22;4.47;;;2.33;;
21330;SDS011;10824;51.632;4.950;2023-07-31T01:47:49;9.20;;;2.80;;
21330;SDS011;10824;51.632;4.950;2023-07-31T01:50:16;12.50;;;3.30;;
21330;SDS011;10824;51.632;4.950;2023-07-31T01:52:43;6.50;;;2.47;;
21330;SDS011;10824;51.632;4.950;2023-07-31T01:55:11;10.00;;;2.88;;
21330;SDS011;10824;51.632;4.950;2023-07-31T01:57:38;11.27;;;3.58;;
21330;SDS011;10824;51.632;4.950;2023-07-31T02:00:05;7.65;;;2.67;;
21330;SDS011;10824;51.632;4.950;2023-07-31T02:02:39;8.88;;;3.15;;
21330;SDS011;10824;51.632;4.950;2023-07-31T02:05:06;9.27;;;3.42;;
21330;SDS011;10824;51.632;4.950;2023-07-31T02:07:33;6.55;;;2.17;;
21330;SDS011;10824;51.632;4.950;2023-07-31T02:10:00;9.00;;;2.05;;
21330;SDS011;10824;51.632;4.950;2023-07-31T02:12:27;5.60;;;2.90;;
21330;SDS011;10824;51.632;4.950;2023-07-31T02:14:57;6.47;;;2.60;;
21330;SDS011;10824;51.632;4.950;2023-07-31T02:17:24;8.20;;;2.63;;
21330;SDS011;10824;51.632;4.950;2023-07-31T02:19:51;11.38;;;3.38;;
21330;SDS011;10824;51.632;4.950;2023-07-31T02:22:18;8.88;;;2.20;;
21330;SDS011;10824;51.632;4.950;2023-07-31T02:24:46;6.72;;;2.20;;
21330;SDS011;10824;51.632;4.950;2023-07-31T02:27:13;10.10;;;2.85;;
21330;SDS011;10824;51.632;4.950;2023-07-31T02:29:40;6.38;;;2.30;;
21330;SDS011;10824;51.632;4.950;2023-07-31T02:32:07;13.85;;;2.92;;
21330;SDS011;10824;51.632;4.950;2023-07-31T02:34:34;4.55;;;2.30;;
21330;SDS011;10824;51.632;4.950;2023-07-31T02:37:01;5.82;;;2.60;;
21330;SDS011;10824;51.632;4.950;2023-07-31T02:39:28;10.82;;;2.72;;
21330;SDS011;10824;51.632;4.950;2023-07-31T02:41:55;24.83;;;4.10;;
21330;SDS011;10824;51.632;4.950;2023-07-31T02:44:22;9.82;;;2.20;;
21330;SDS011;10824;51.632;4.950;2023-07-31T02:46:50;7.03;;;2.35;;
21330;SDS011;10824;51.632;4.950;2023-07-31T02:49:17;10.70;;;3.28;;
21330;SDS011;10824;51.632;4.950;2023-07-31T02:51:51;6.82;;;2.50;;
21330;SDS011;10824;51.632;4.950;2023-07-31T02:54:18;5.05;;;1.98;;
21330;SDS011;10824;51.632;4.950;2023-07-31T02:56:47;5.70;;;2.55;;
21330;SDS011;10824;51.632;4.950;2023-07-31T02:59:15;4.43;;;1.77;;
21330;SDS011;10824;51.632;4.950;2023-07-31T03:01:43;8.07;;;2.67;;
21330;SDS011;10824;51.632;4.950;2023-07-31T03:04:10;7.57;;;2.97;;
21330;SDS011;10824;51.632;4.950;2023-07-31T03:06:37;7.28;;;2.38;;
21330;SDS011;10824;51.632;4.950;2023-07-31T03:09:05;7.75;;;2.40;;
21330;SDS011;10824;51.632;4.950;2023-07-31T03:11:32;9.88;;;2.03;;
21330;SDS011;10824;51.632;4.950;2023-07-31T03:14:00;8.07;;;2.47;;
21330;SDS011;10824;51.632;4.950;2023-07-31T03:16:27;5.72;;;2.08;;
21330;SDS011;10824;51.632;4.950;2023-07-31T03:18:54;3.65;;;2.17;;
21330;SDS011;10824;51.632;4.950;2023-07-31T03:21:21;7.35;;;2.70;;
21330;SDS011;10824;51.632;4.950;2023-07-31T03:23:48;10.68;;;2.50;;
21330;SDS011;10824;51.632;4.950;2023-07-31T03:26:15;3.78;;;2.22;;
21330;SDS011;10824;51.632;4.950;2023-07-31T03:28:42;5.43;;;2.63;;
21330;SDS011;10824;51.632;4.950;2023-07-31T03:31:10;6.80;;;2.20;;
21330;SDS011;10824;51.632;4.950;2023-07-31T03:33:38;7.68;;;2.88;;
21330;SDS011;10824;51.632;4.950;2023-07-31T03:36:08;6.40;;;2.45;;
21330;SDS011;10824;51.632;4.950;2023-07-31T03:38:35;8.43;;;3.22;;
21330;SDS011;10824;51.632;4.950;2023-07-31T03:41:02;7.57;;;2.35;;
21330;SDS011;10824;51.632;4.950;2023-07-31T03:43:29;9.13;;;3.10;;
21330;SDS011;10824;51.632;4.950;2023-07-31T03:45:56;5.90;;;2.30;;
21330;SDS011;10824;51.632;4.950;2023-07-31T03:48:23;6.65;;;2.45;;
21330;SDS011;10824;51.632;4.950;2023-07-31T03:50:51;7.40;;;2.13;;
21330;SDS011;10824;51.632;4.950;2023-07-31T03:53:18;5.53;;;2.63;;
21330;SDS011;10824;51.632;4.950;2023-07-31T03:55:45;6.57;;;2.40;;
21330;SDS011;10824;51.632;4.950;2023-07-31T03:58:12;4.95;;;2.20;;
21330;SDS011;10824;51.632;4.950;2023-07-31T04:00:39;4.03;;;1.85;;
21330;SDS011;10824;51.632;4.950;2023-07-31T04:03:07;5.78;;;2.00;;
21330;SDS011;10824;51.632;4.950;2023-07-31T04:05:37;5.07;;;2.10;;
21330;SDS011;10824;51.632;4.950;2023-07-31T04:08:05;5.40;;;2.28;;
21330;SDS011;10824;51.632;4.950;2023-07-31T04:10:32;7.78;;;2.70;;
21330;SDS011;10824;51.632;4.950;2023-07-31T04:13:00;7.45;;;2.10;;
21330;SDS011;10824;51.632;4.950;2023-07-31T04:15:28;8.07;;;2.25;;
21330;SDS011;10824;51.632;4.950;2023-07-31T04:17:55;5.57;;;2.88;;
21330;SDS011;10824;51.632;4.950;2023-07-31T04:20:22;8.25;;;2.08;;
21330;SDS011;10824;51.632;4.950;2023-07-31T04:22:49;7.85;;;2.40;;
21330;SDS011;10824;51.632;4.950;2023-07-31T04:25:16;5.70;;;2.20;;
21330;SDS011;10824;51.632;4.950;2023-07-31T04:27:43;18.52;;;3.65;;
21330;SDS011;10824;51.632;4.950;2023-07-31T04:30:10;6.85;;;2.00;;
21330;SDS011;10824;51.632;4.950;2023-07-31T04:32:37;3.42;;;1.98;;
21330;SDS011;10824;51.632;4.950;2023-07-31T04:35:05;10.15;;;3.00;;
21330;SDS011;10824;51.632;4.950;2023-07-31T04:37:32;5.25;;;2.58;;
21330;SDS011;10824;51.632;4.950;2023-07-31T04:39:59;5.65;;;2.22;;
21330;SDS011;10824;51.632;4.950;2023-07-31T04:42:27;7.13;;;2.40;;
21330;SDS011;10824;51.632;4.950;2023-07-31T04:44:54;6.38;;;2.10;;
21330;SDS011;10824;51.632;4.950;2023-07-31T04:47:20;6.10;;;1.77;;
21330;SDS011;10824;51.632;4.950;2023-07-31T04:49:47;4.93;;;2.25;;
21330;SDS011;10824;51.632;4.950;2023-07-31T04:52:14;5.95;;;1.88;;
21330;SDS011;10824;51.632;4.950;2023-07-31T04:54:42;6.72;;;1.80;;
21330;SDS011;10824;51.632;4.950;2023-07-31T04:57:09;7.82;;;1.90;;
21330;SDS011;10824;51.632;4.950;2023-07-31T04:59:36;5.15;;;1.70;;
21330;SDS011;10824;51.632;4.950;2023-07-31T05:02:07;6.13;;;1.80;;
21330;SDS011;10824;51.632;4.950;2023-07-31T05:04:35;3.20;;;1.92;;
21330;SDS011;10824;51.632;4.950;2023-07-31T05:07:02;4.00;;;1.58;;
21330;SDS011;10824;51.632;4.950;2023-07-31T05:09:29;9.00;;;2.35;;
21330;SDS011;10824;51.632;4.950;2023-07-31T05:11:56;5.68;;;2.08;;
21330;SDS011;10824;51.632;4.950;2023-07-31T05:14:23;7.15;;;2.20;;
21330;SDS011;10824;51.632;4.950;2023-07-31T05:16:50;4.43;;;1.80;;
21330;SDS011;10824;51.632;4.950;2023-07-31T05:19:17;3.50;;;1.88;;
21330;SDS011;10824;51.632;4.950;2023-07-31T05:21:44;3.22;;;1.50;;
21330;SDS011;10824;51.632;4.950;2023-07-31T05:24:11;6.25;;;1.95;;
21330;SDS011;10824;51.632;4.950;2023-07-31T05:26:38;4.43;;;1.65;;
21330;SDS011;10824;51.632;4.950;2023-07-31T05:29:06;6.43;;;2.25;;
21330;SDS011;10824;51.632;4.950;2023-07-31T05:31:33;4.30;;;2.17;;
21330;SDS011;10824;51.632;4.950;2023-07-31T05:34:01;3.17;;;1.80;;
21330;SDS011;10824;51.632;4.950;2023-07-31T05:36:28;2.50;;;1.20;;
21330;SDS011;10824;51.632;4.950;2023-07-31T05:38:55;5.07;;;2.38;;
21330;SDS011;10824;51.632;4.950;2023-07-31T05:41:22;5.70;;;1.88;;
21330;SDS011;10824;51.632;4.950;2023-07-31T05:43:49;5.45;;;1.60;;
21330;SDS011;10824;51.632;4.950;2023-07-31T05:46:18;8.45;;;2.08;;
21330;SDS011;10824;51.632;4.950;2023-07-31T05:48:45;8.32;;;1.45;;
21330;SDS011;10824;51.632;4.950;2023-07-31T05:51:12;2.35;;;1.45;;
21330;SDS011;10824;51.632;4.950;2023-07-31T05:53:39;2.05;;;1.30;;
21330;SDS011;10824;51.632;4.950;2023-07-31T05:56:07;1.63;;;1.10;;
21330;SDS011;10824;51.632;4.950;2023-07-31T05:58:34;1.83;;;1.20;;
21330;SDS011;10824;51.632;4.950;2023-07-31T06:01:01;3.20;;;1.40;;
21330;SDS011;10824;51.632;4.950;2023-07-31T06:03:28;2.97;;;1.45;;
21330;SDS011;10824;51.632;4.950;2023-07-31T06:05:55;3.47;;;1.00;;
21330;SDS011;10824;51.632;4.950;2023-07-31T06:08:22;2.58;;;1.13;;
21330;SDS011;10824;51.632;4.950;2023-07-31T06:10:49;4.18;;;1.20;;
21330;SDS011;10824;51.632;4.950;2023-07-31T06:13:16;2.17;;;1.23;;
21330;SDS011;10824;51.632;4.950;2023-07-31T06:15:43;4.38;;;2.55;;
21330;SDS011;10824;51.632;4.950;2023-07-31T06:18:10;2.53;;;0.80;;
21330;SDS011;10824;51.632;4.950;2023-07-31T06:20:38;3.05;;;1.25;;
21330;SDS011;10824;51.632;4.950;2023-07-31T06:23:07;3.13;;;1.80;;
21330;SDS011;10824;51.632;4.950;2023-07-31T06:25:34;2.83;;;1.58;;
21330;SDS011;10824;51.632;4.950;2023-07-31T06:28:01;2.55;;;1.00;;
21330;SDS011;10824;51.632;4.950;2023-07-31T06:30:28;4.22;;;1.83;;
21330;SDS011;10824;51.632;4.950;2023-07-31T06:32:55;4.18;;;1.58;;
21330;SDS011;10824;51.632;4.950;2023-07-31T06:35:22;3.58;;;0.93;;
21330;SDS011;10824;51.632;4.950;2023-07-31T06:37:49;4.85;;;1.98;;
21330;SDS011;10824;51.632;4.950;2023-07-31T06:40:17;5.03;;;1.60;;
21330;SDS011;10824;51.632;4.950;2023-07-31T06:42:45;2.55;;;1.13;;
21330;SDS011;10824;51.632;4.950;2023-07-31T06:45:12;3.15;;;1.20;;
21330;SDS011;10824;51.632;4.950;2023-07-31T06:47:40;4.70;;;1.90;;
21330;SDS011;10824;51.632;4.950;2023-07-31T06:50:07;1.98;;;1.30;;
21330;SDS011;10824;51.632;4.950;2023-07-31T06:52:34;2.15;;;1.17;;
21330;SDS011;10824;51.632;4.950;2023-07-31T06:55:18;1.75;;;1.10;;
21330;SDS011;10824;51.632;4.950;2023-07-31T06:57:46;3.55;;;1.50;;
21330;SDS011;10824;51.632;4.950;2023-07-31T07:00:15;2.10;;;1.73;;
21330;SDS011;10824;51.632;4.950;2023-07-31T07:02:43;2.22;;;0.77;;
21330;SDS011;10824;51.632;4.950;2023-07-31T07:05:10;0.98;;;0.75;;
21330;SDS011;10824;51.632;4.950;2023-07-31T07:07:37;1.05;;;0.73;;
21330;SDS011;10824;51.632;4.950;2023-07-31T07:10:04;1.05;;;0.77;;
21330;SDS011;10824;51.632;4.950;2023-07-31T07:12:32;1.88;;;1.00;;
21330;SDS011;10824;51.632;4.950;2023-07-31T07:15:00;1.70;;;1.60;;
21330;SDS011;10824;51.632;4.950;2023-07-31T07:17:28;0.68;;;0.60;;
21330;SDS011;10824;51.632;4.950;2023-07-31T07:19:59;1.88;;;0.68;;
21330;SDS011;10824;51.632;4.950;2023-07-31T07:22:27;0.68;;;0.68;;
21330;SDS011;10824;51.632;4.950;2023-07-31T07:24:54;2.92;;;0.80;;
21330;SDS011;10824;51.632;4.950;2023-07-31T07:27:21;1.13;;;1.00;;
21330;SDS011;10824;51.632;4.950;2023-07-31T07:29:50;0.70;;;0.70;;
21330;SDS011;10824;51.632;4.950;2023-07-31T07:32:19;0.98;;;0.80;;
21330;SDS011;10824;51.632;4.950;2023-07-31T07:34:47;3.10;;;1.25;;
21330;SDS011;10824;51.632;4.950;2023-07-31T07:37:15;1.50;;;1.30;;
21330;SDS011;10824;51.632;4.950;2023-07-31T07:39:42;1.60;;;1.20;;
21330;SDS011;10824;51.632;4.950;2023-07-31T07:42:10;1.70;;;1.02;;
21330;SDS011;10824;51.632;4.950;2023-07-31T07:44:37;3.33;;;0.90;;
21330;SDS011;10824;51.632;4.950;2023-07-31T07:47:04;1.35;;;0.90;;
21330;SDS011;10824;51.632;4.950;2023-07-31T07:49:35;2.22;;;1.83;;
21330;SDS011;10824;51.632;4.950;2023-07-31T07:52:02;2.17;;;1.30;;
21330;SDS011;10824;51.632;4.950;2023-07-31T07:54:30;2.72;;;1.30;;
21330;SDS011;10824;51.632;4.950;2023-07-31T07:56:57;1.35;;;1.10;;
21330;SDS011;10824;51.632;4.950;2023-07-31T07:59:25;3.08;;;1.77;;
21330;SDS011;10824;51.632;4.950;2023-07-31T08:01:52;2.20;;;1.40;;
21330;SDS011;10824;51.632;4.950;2023-07-31T08:04:20;1.50;;;1.20;;
21330;SDS011;10824;51.632;4.950;2023-07-31T08:06:47;3.25;;;1.70;;
21330;SDS011;10824;51.632;4.950;2023-07-31T08:09:16;3.33;;;1.55;;
21330;SDS011;10824;51.632;4.950;2023-07-31T08:11:43;1.35;;;1.23;;
21330;SDS011;10824;51.632;4.950;2023-07-31T08:14:11;3.08;;;2.03;;
21330;SDS011;10824;51.632;4.950;2023-07-31T08:16:41;3.00;;;1.42;;
21330;SDS011;10824;51.632;4.950;2023-07-31T08:19:27;3.97;;;1.48;;
21330;SDS011;10824;51.632;4.950;2023-07-31T08:21:55;3.63;;;1.70;;
21330;SDS011;10824;51.632;4.950;2023-07-31T08:24:27;5.22;;;1.77;;
21330;SDS011;10824;51.632;4.950;2023-07-31T08:26:57;2.53;;;1.65;;
21330;SDS011;10824;51.632;4.950;2023-07-31T08:29:24;3.10;;;1.85;;
21330;SDS011;10824;51.632;4.950;2023-07-31T08:31:52;4.53;;;2.00;;
21330;SDS011;10824;51.632;4.950;2023-07-31T08:34:22;3.90;;;1.60;;
21330;SDS011;10824;51.632;4.950;2023-07-31T08:36:50;2.53;;;1.70;;
21330;SDS011;10824;51.632;4.950;2023-07-31T08:39:21;2.65;;;1.65;;
21330;SDS011;10824;51.632;4.950;2023-07-31T08:41:50;3.92;;;2.00;;
21330;SDS011;10824;51.632;4.950;2023-07-31T08:44:17;2.65;;;2.03;;
21330;SDS011;10824;51.632;4.950;2023-07-31T08:46:44;4.25;;;2.80;;
21330;SDS011;10824;51.632;4.950;2023-07-31T08:49:13;3.58;;;1.83;;
21330;SDS011;10824;51.632;4.950;2023-07-31T08:51:42;2.45;;;1.73;;
21330;SDS011;10824;51.632;4.950;2023-07-31T08:54:09;3.72;;;1.90;;
21330;SDS011;10824;51.632;4.950;2023-07-31T08:56:36;3.60;;;1.92;;
21330;SDS011;10824;51.632;4.950;2023-07-31T08:59:04;3.05;;;2.13;;
21330;SDS011;10824;51.632;4.950;2023-07-31T09:01:32;3.85;;;1.60;;
21330;SDS011;10824;51.632;4.950;2023-07-31T09:04:05;2.08;;;1.30;;
21330;SDS011;10824;51.632;4.950;2023-07-31T09:06:34;3.22;;;1.98;;
21330;SDS011;10824;51.632;4.950;2023-07-31T09:09:01;5.32;;;1.70;;
21330;SDS011;10824;51.632;4.950;2023-07-31T09:11:29;3.78;;;2.28;;
21330;SDS011;10824;51.632;4.950;2023-07-31T09:13:57;5.07;;;1.70;;
21330;SDS011;10824;51.632;4.950;2023-07-31T09:16:28;4.03;;;1.85;;
21330;SDS011;10824;51.632;4.950;2023-07-31T09:18:58;4.63;;;2.03;;
21330;SDS011;10824;51.632;4.950;2023-07-31T09:21:28;10.40;;;3.78;;
21330;SDS011;10824;51.632;4.950;2023-07-31T09:23:55;2.28;;;1.70;;
21330;SDS011;10824;51.632;4.950;2023-07-31T09:26:35;13.18;;;2.40;;
21330;SDS011;10824;51.632;4.950;2023-07-31T09:29:04;4.17;;;1.77;;
21330;SDS011;10824;51.632;4.950;2023-07-31T09:31:39;4.35;;;2.70;;
21330;SDS011;10824;51.632;4.950;2023-07-31T09:34:08;1.45;;;1.02;;
21330;SDS011;10824;51.632;4.950;2023-07-31T09:36:44;4.50;;;1.38;;
21330;SDS011;10824;51.632;4.950;2023-07-31T09:39:16;2.13;;;1.20;;
21330;SDS011;10824;51.632;4.950;2023-07-31T09:41:45;1.75;;;1.13;;
21330;SDS011;10824;51.632;4.950;2023-07-31T09:44:20;4.32;;;1.52;;
21330;SDS011;10824;51.632;4.950;2023-07-31T09:46:47;1.95;;;1.20;;
21330;SDS011;10824;51.632;4.950;2023-07-31T09:49:15;4.05;;;2.03;;
21330;SDS011;10824;51.632;4.950;2023-07-31T09:51:42;1.88;;;1.63;;
21330;SDS011;10824;51.632;4.950;2023-07-31T09:54:12;1.58;;;1.00;;
21330;SDS011;10824;51.632;4.950;2023-07-31T09:56:45;1.90;;;0.95;;
21330;SDS011;10824;51.632;4.950;2023-07-31T09:59:20;2.00;;;1.25;;
21330;SDS011;10824;51.632;4.950;2023-07-31T10:01:50;4.40;;;1.50;;
21330;SDS011;10824;51.632;4.950;2023-07-31T10:04:18;1.52;;;1.10;;
21330;SDS011;10824;51.632;4.950;2023-07-31T10:06:52;2.47;;;1.20;;
21330;SDS011;10824;51.632;4.950;2023-07-31T10:09:20;1.95;;;1.05;;
21330;SDS011;10824;51.632;4.950;2023-07-31T10:11:55;0.93;;;0.85;;
21330;SDS011;10824;51.632;4.950;2023-07-31T10:14:26;2.70;;;0.93;;
21330;SDS011;10824;51.632;4.950;2023-07-31T10:16:55;3.92;;;1.65;;
21330;SDS011;10824;51.632;4.950;2023-07-31T10:19:24;3.17;;;1.58;;
21330;SDS011;10824;51.632;4.950;2023-07-31T10:21:53;4.30;;;1.00;;
21330;SDS011;10824;51.632;4.950;2023-07-31T10:24:23;2.00;;;1.08;;
21330;SDS011;10824;51.632;4.950;2023-07-31T10:26:51;1.52;;;0.88;;
21330;SDS011;10824;51.632;4.950;2023-07-31T10:29:19;1.65;;;0.90;;
21330;SDS011;10824;51.632;4.950;2023-07-31T10:31:48;2.50;;;0.85;;
21330;SDS011;10824;51.632;4.950;2023-07-31T10:34:16;1.67;;;1.00;;
21330;SDS011;10824;51.632;4.950;2023-07-31T10:36:44;4.30;;;1.70;;
21330;SDS011;10824;51.632;4.950;2023-07-31T10:42:12;1.53;;;1.17;;
21330;SDS011;10824;51.632;4.950;2023-07-31T10:44:49;2.03;;;0.75;;
21330;SDS011;10824;51.632;4.950;2023-07-31T10:47:16;2.83;;;0.80;;
21330;SDS011;10824;51.632;4.950;2023-07-31T10:49:44;1.60;;;0.80;;
21330;SDS011;10824;51.632;4.950;2023-07-31T10:52:13;1.50;;;0.98;;
21330;SDS011;10824;51.632;4.950;2023-07-31T10:54:40;4.32;;;1.48;;
21330;SDS011;10824;51.632;4.950;2023-07-31T10:57:20;1.67;;;1.17;;
21330;SDS011;10824;51.632;4.950;2023-07-31T10:59:48;1.73;;;0.90;;
21330;SDS011;10824;51.632;4.950;2023-07-31T11:02:26;3.10;;;1.38;;
21330;SDS011;10824;51.632;4.950;2023-07-31T11:05:10;1.90;;;1.17;;
21330;SDS011;10824;51.632;4.950;2023-07-31T11:07:48;2.13;;;1.27;;
21330;SDS011;10824;51.632;4.950;2023-07-31T11:10:16;1.92;;;0.93;;
21330;SDS011;10824;51.632;4.950;2023-07-31T11:12:44;3.38;;;0.90;;
21330;SDS011;10824;51.632;4.950;2023-07-31T11:15:13;2.25;;;0.98;;
21330;SDS011;10824;51.632;4.950;2023-07-31T11:17:40;1.85;;;1.30;;
21330;SDS011;10824;51.632;4.950;2023-07-31T11:20:08;1.10;;;0.85;;
21330;SDS011;10824;51.632;4.950;2023-07-31T11:22:35;2.30;;;1.27;;
21330;SDS011;10824;51.632;4.950;2023-07-31T11:25:03;1.10;;;1.00;;
21330;SDS011;10824;51.632;4.950;2023-07-31T11:27:30;1.67;;;0.93;;
21330;SDS011;10824;51.632;4.950;2023-07-31T11:30:05;2.72;;;1.00;;
21330;SDS011;10824;51.632;4.950;2023-07-31T11:32:33;2.05;;;1.10;;
21330;SDS011;10824;51.632;4.950;2023-07-31T11:35:02;2.70;;;1.73;;
21330;SDS011;10824;51.632;4.950;2023-07-31T11:37:38;2.25;;;1.00;;
21330;SDS011;10824;51.632;4.950;2023-07-31T11:40:07;1.45;;;1.00;;
21330;SDS011;10824;51.632;4.950;2023-07-31T11:42:35;1.50;;;0.90;;
21330;SDS011;10824;51.632;4.950;2023-07-31T11:45:06;1.45;;;0.80;;
21330;SDS011;10824;51.632;4.950;2023-07-31T11:47:34;2.25;;;1.27;;
21330;SDS011;10824;51.632;4.950;2023-07-31T11:50:04;3.15;;;1.40;;
21330;SDS011;10824;51.632;4.950;2023-07-31T11:52:37;3.17;;;1.10;;
21330;SDS011;10824;51.632;4.950;2023-07-31T11:55:07;1.85;;;1.17;;
21330;SDS011;10824;51.632;4.950;2023-07-31T11:57:39;3.80;;;1.90;;
21330;SDS011;10824;51.632;4.950;2023-07-31T12:00:08;2.05;;;1.23;;
21330;SDS011;10824;51.632;4.950;2023-07-31T12:02:37;1.80;;;1.30;;
21330;SDS011;10824;51.632;4.950;2023-07-31T12:05:09;3.50;;;1.40;;
21330;SDS011;10824;51.632;4.950;2023-07-31T12:07:51;3.70;;;1.50;;
21330;SDS011;10824;51.632;4.950;2023-07-31T12:10:27;7.85;;;2.50;;
21330;SDS011;10824;51.632;4.950;2023-07-31T12:15:41;4.75;;;2.03;;
21330;SDS011;10824;51.632;4.950;2023-07-31T12:18:10;2.35;;;1.58;;
21330;SDS011;10824;51.632;4.950;2023-07-31T12:20:42;2.97;;;1.42;;
21330;SDS011;10824;51.632;4.950;2023-07-31T12:23:17;3.63;;;1.58;;
21330;SDS011;10824;51.632;4.950;2023-07-31T12:26:04;2.58;;;1.70;;
21330;SDS011;10824;51.632;4.950;2023-07-31T12:28:42;3.70;;;2.13;;
21330;SDS011;10824;51.632;4.950;2023-07-31T12:31:15;1.40;;;1.30;;
21330;SDS011;10824;51.632;4.950;2023-07-31T12:33:44;2.20;;;1.48;;
21330;SDS011;10824;51.632;4.950;2023-07-31T12:36:16;24.75;;;4.60;;
21330;SDS011;10824;51.632;4.950;2023-07-31T12:38:46;3.90;;;1.83;;
21330;SDS011;10824;51.632;4.950;2023-07-31T12:41:13;3.83;;;1.60;;
21330;SDS011;10824;51.632;4.950;2023-07-31T12:43:41;3.15;;;1.60;;
21330;SDS011;10824;51.632;4.950;2023-07-31T12:46:08;3.05;;;1.88;;
21330;SDS011;10824;51.632;4.950;2023-07-31T12:48:37;3.10;;;1.88;;
21330;SDS011;10824;51.632;4.950;2023-07-31T12:51:05;3.75;;;2.03;;
21330;SDS011;10824;51.632;4.950;2023-07-31T12:53:35;3.97;;;1.70;;
21330;SDS011;10824;51.632;4.950;2023-07-31T12:56:02;4.03;;;1.90;;
21330;SDS011;10824;51.632;4.950;2023-07-31T12:58:30;3.35;;;2.03;;
21330;SDS011;10824;51.632;4.950;2023-07-31T13:00:57;3.33;;;2.08;;
21330;SDS011;10824;51.632;4.950;2023-07-31T13:03:25;3.38;;;1.80;;
21330;SDS011;10824;51.632;4.950;2023-07-31T13:05:52;3.45;;;2.40;;
21330;SDS011;10824;51.632;4.950;2023-07-31T13:08:19;4.85;;;2.20;;
21330;SDS011;10824;51.632;4.950;2023-07-31T13:10:47;5.28;;;2.08;;
21330;SDS011;10824;51.632;4.950;2023-07-31T13:13:14;4.43;;;2.03;;
21330;SDS011;10824;51.632;4.950;2023-07-31T13:15:41;2.95;;;1.80;;
21330;SDS011;10824;51.632;4.950;2023-07-31T13:18:10;3.17;;;1.92;;
21330;SDS011;10824;51.632;4.950;2023-07-31T13:20:37;6.85;;;1.80;;
21330;SDS011;10824;51.632;4.950;2023-07-31T13:23:07;3.28;;;2.40;;
21330;SDS011;10824;51.632;4.950;2023-07-31T13:25:34;4.05;;;1.52;;
21330;SDS011;10824;51.632;4.950;2023-07-31T13:28:01;5.10;;;2.40;;
21330;SDS011;10824;51.632;4.950;2023-07-31T13:30:31;3.65;;;1.85;;
21330;SDS011;10824;51.632;4.950;2023-07-31T13:32:58;5.35;;;1.88;;
21330;SDS011;10824;51.632;4.950;2023-07-31T13:35:27;3.90;;;1.90;;
21330;SDS011;10824;51.632;4.950;2023-07-31T13:37:54;5.22;;;1.85;;
21330;SDS011;10824;51.632;4.950;2023-07-31T13:40:32;10.80;;;3.40;;
21330;SDS011;10824;51.632;4.950;2023-07-31T13:43:10;2.40;;;1.60;;
21330;SDS011;10824;51.632;4.950;2023-07-31T13:45:39;2.58;;;1.92;;
21330;SDS011;10824;51.632;4.950;2023-07-31T13:48:07;3.17;;;1.60;;
21330;SDS011;10824;51.632;4.950;2023-07-31T13:50:40;2.53;;;1.45;;
21330;SDS011;10824;51.632;4.950;2023-07-31T13:53:07;5.28;;;1.35;;
21330;SDS011;10824;51.632;4.950;2023-07-31T13:55:35;3.30;;;1.92;;
21330;SDS011;10824;51.632;4.950;2023-07-31T13:58:02;2.88;;;1.77;;
21330;SDS011;10824;51.632;4.950;2023-07-31T14:00:29;2.55;;;2.10;;
21330;SDS011;10824;51.632;4.950;2023-07-31T14:02:56;3.10;;;1.60;;
21330;SDS011;10824;51.632;4.950;2023-07-31T14:05:27;3.35;;;1.65;;
21330;SDS011;10824;51.632;4.950;2023-07-31T14:07:54;6.20;;;2.08;;
21330;SDS011;10824;51.632;4.950;2023-07-31T14:10:21;5.18;;;2.80;;
21330;SDS011;10824;51.632;4.950;2023-07-31T14:12:48;6.50;;;1.83;;
21330;SDS011;10824;51.632;4.950;2023-07-31T14:15:15;7.90;;;3.05;;
21330;SDS011;10824;51.632;4.950;2023-07-31T14:17:42;5.63;;;1.80;;
21330;SDS011;10824;51.632;4.950;2023-07-31T14:20:10;3.08;;;1.80;;
21330;SDS011;10824;51.632;4.950;2023-07-31T14:22:38;3.55;;;2.13;;
21330;SDS011;10824;51.632;4.950;2023-07-31T14:25:05;6.50;;;2.70;;
21330;SDS011;10824;51.632;4.950;2023-07-31T14:27:32;4.70;;;2.13;;
21330;SDS011;10824;51.632;4.950;2023-07-31T14:30:00;4.35;;;1.63;;
21330;SDS011;10824;51.632;4.950;2023-07-31T14:32:27;2.55;;;1.40;;
21330;SDS011;10824;51.632;4.950;2023-07-31T14:34:55;2.47;;;1.38;;
21330;SDS011;10824;51.632;4.950;2023-07-31T14:37:22;2.45;;;1.30;;
21330;SDS011;10824;51.632;4.950;2023-07-31T14:39:52;4.15;;;1.58;;
21330;SDS011;10824;51.632;4.950;2023-07-31T14:42:19;2.17;;;1.40;;
21330;SDS011;10824;51.632;4.950;2023-07-31T14:44:46;0.95;;;0.90;;
21330;SDS011;10824;51.632;4.950;2023-07-31T14:47:14;1.67;;;1.08;;
21330;SDS011;10824;51.632;4.950;2023-07-31T14:49:41;2.00;;;1.05;;
21330;SDS011;10824;51.632;4.950;2023-07-31T14:52:08;3.42;;;1.00;;
21330;SDS011;10824;51.632;4.950;2023-07-31T14:57:25;1.80;;;0.95;;
21330;SDS011;10824;51.632;4.950;2023-07-31T14:59:56;1.73;;;1.08;;
21330;SDS011;10824;51.632;4.950;2023-07-31T15:02:25;2.03;;;1.40;;
21330;SDS011;10824;51.632;4.950;2023-07-31T15:04:55;3.43;;;0.90;;
21330;SDS011;10824;51.632;4.950;2023-07-31T15:07:25;1.35;;;0.75;;
21330;SDS011;10824;51.632;4.950;2023-07-31T15:09:57;3.05;;;0.90;;
21330;SDS011;10824;51.632;4.950;2023-07-31T15:12:31;4.35;;;0.77;;
21330;SDS011;10824;51.632;4.950;2023-07-31T15:15:08;1.90;;;1.20;;